sensor_id;sensor_type;location;lat;lon;timestamp;P1;durP1;ratioP1;P2;durP2;ratioP2
4748;SDS011;2388;53.582;9.962;2023-12-28T00:00:39;2.00;;;1.10;;
4748;SDS011;2388;53.582;9.962;2023-12-28T00:03:05;2.83;;;1.50;;
4748;SDS011;2388;53.582;9.962;2023-12-28T00:05:30;1.37;;;1.10;;
4748;SDS011;2388;53.582;9.962;2023-12-28T00:07:56;3.00;;;1.13;;
4748;SDS011;2388;53.582;9.962;2023-12-28T00:10:25;1.80;;;1.27;;
4748;SDS011;2388;53.582;9.962;2023-12-28T00:12:52;1.63;;;1.10;;
4748;SDS011;2388;53.582;9.962;2023-12-28T00:15:18;1.27;;;0.80;;
4748;SDS011;2388;53.582;9.962;2023-12-28T00:17:44;4.93;;;1.30;;
4748;SDS011;2388;53.582;9.962;2023-12-28T00:20:10;2.90;;;1.43;;
4748;SDS011;2388;53.582;9.962;2023-12-28T00:22:36;1.93;;;1.20;;
4748;SDS011;2388;53.582;9.962;2023-12-28T00:25:04;3.00;;;1.30;;
4748;SDS011;2388;53.582;9.962;2023-12-28T00:27:30;4.50;;;1.03;;
4748;SDS011;2388;53.582;9.962;2023-12-28T00:29:56;1.53;;;1.10;;
4748;SDS011;2388;53.582;9.962;2023-12-28T00:32:21;1.20;;;1.10;;
4748;SDS011;2388;53.582;9.962;2023-12-28T00:34:47;1.33;;;1.07;;
4748;SDS011;2388;53.582;9.962;2023-12-28T00:37:12;8.83;;;1.47;;
4748;SDS011;2388;53.582;9.962;2023-12-28T00:39:38;1.10;;;0.93;;
4748;SDS011;2388;53.582;9.962;2023-12-28T00:42:05;1.30;;;1.10;;
4748;SDS011;2388;53.582;9.962;2023-12-28T00:44:31;2.30;;;0.93;;
4748;SDS011;2388;53.582;9.962;2023-12-28T00:46:56;1.43;;;1.00;;
4748;SDS011;2388;53.582;9.962;2023-12-28T00:49:22;1.90;;;1.10;;
4748;SDS011;2388;53.582;9.962;2023-12-28T00:51:47;1.40;;;1.30;;
4748;SDS011;2388;53.582;9.962;2023-12-28T00:54:13;1.00;;;0.87;;
4748;SDS011;2388;53.582;9.962;2023-12-28T00:56:38;2.40;;;1.40;;
4748;SDS011;2388;53.582;9.962;2023-12-28T00:59:04;1.77;;;1.37;;
4748;SDS011;2388;53.582;9.962;2023-12-28T01:01:29;1.60;;;1.10;;
4748;SDS011;2388;53.582;9.962;2023-12-28T01:03:58;2.50;;;1.27;;
4748;SDS011;2388;53.582;9.962;2023-12-28T01:06:23;1.53;;;1.20;;
4748;SDS011;2388;53.582;9.962;2023-12-28T01:08:53;2.70;;;1.53;;
4748;SDS011;2388;53.582;9.962;2023-12-28T01:11:19;3.47;;;1.60;;
4748;SDS011;2388;53.582;9.962;2023-12-28T01:13:45;4.03;;;1.40;;
4748;SDS011;2388;53.582;9.962;2023-12-28T01:16:12;1.40;;;1.20;;
4748;SDS011;2388;53.582;9.962;2023-12-28T01:18:38;2.00;;;0.90;;
4748;SDS011;2388;53.582;9.962;2023-12-28T01:21:04;2.73;;;1.20;;
4748;SDS011;2388;53.582;9.962;2023-12-28T01:23:30;1.23;;;1.10;;
4748;SDS011;2388;53.582;9.962;2023-12-28T01:25:56;8.17;;;1.57;;
4748;SDS011;2388;53.582;9.962;2023-12-28T01:28:22;1.97;;;1.43;;
4748;SDS011;2388;53.582;9.962;2023-12-28T01:30:47;1.37;;;1.27;;
4748;SDS011;2388;53.582;9.962;2023-12-28T01:33:13;3.00;;;1.47;;
4748;SDS011;2388;53.582;9.962;2023-12-28T01:35:38;3.03;;;1.37;;
4748;SDS011;2388;53.582;9.962;2023-12-28T01:38:03;1.37;;;1.27;;
4748;SDS011;2388;53.582;9.962;2023-12-28T01:40:29;3.80;;;1.50;;
4748;SDS011;2388;53.582;9.962;2023-12-28T01:42:54;2.50;;;1.47;;
4748;SDS011;2388;53.582;9.962;2023-12-28T01:45:20;6.00;;;1.40;;
4748;SDS011;2388;53.582;9.962;2023-12-28T01:47:45;1.90;;;1.27;;
4748;SDS011;2388;53.582;9.962;2023-12-28T01:50:13;1.40;;;1.30;;
4748;SDS011;2388;53.582;9.962;2023-12-28T01:52:39;2.83;;;1.73;;
4748;SDS011;2388;53.582;9.962;2023-12-28T01:55:05;6.00;;;1.33;;
4748;SDS011;2388;53.582;9.962;2023-12-28T01:57:31;1.97;;;1.70;;
4748;SDS011;2388;53.582;9.962;2023-12-28T01:59:57;1.40;;;1.30;;
4748;SDS011;2388;53.582;9.962;2023-12-28T02:02:26;2.00;;;1.63;;
4748;SDS011;2388;53.582;9.962;2023-12-28T02:04:52;2.23;;;1.40;;
4748;SDS011;2388;53.582;9.962;2023-12-28T02:07:18;1.80;;;1.70;;
4748;SDS011;2388;53.582;9.962;2023-12-28T02:09:45;5.33;;;1.50;;
4748;SDS011;2388;53.582;9.962;2023-12-28T02:12:11;2.50;;;1.53;;
4748;SDS011;2388;53.582;9.962;2023-12-28T02:14:37;2.57;;;1.73;;
4748;SDS011;2388;53.582;9.962;2023-12-28T02:17:06;1.67;;;1.57;;
4748;SDS011;2388;53.582;9.962;2023-12-28T02:19:40;1.40;;;1.30;;
4748;SDS011;2388;53.582;9.962;2023-12-28T02:22:14;2.13;;;1.90;;
4748;SDS011;2388;53.582;9.962;2023-12-28T02:27:31;2.20;;;1.60;;
4748;SDS011;2388;53.582;9.962;2023-12-28T02:30:07;5.20;;;1.77;;
4748;SDS011;2388;53.582;9.962;2023-12-28T02:35:36;3.00;;;1.33;;
4748;SDS011;2388;53.582;9.962;2023-12-28T02:38:11;1.57;;;1.40;;
4748;SDS011;2388;53.582;9.962;2023-12-28T02:40:39;2.10;;;1.47;;
4748;SDS011;2388;53.582;9.962;2023-12-28T02:43:06;1.70;;;1.60;;
4748;SDS011;2388;53.582;9.962;2023-12-28T02:45:32;2.57;;;1.90;;
4748;SDS011;2388;53.582;9.962;2023-12-28T02:48:02;3.67;;;2.93;;
4748;SDS011;2388;53.582;9.962;2023-12-28T02:50:28;1.87;;;1.73;;
4748;SDS011;2388;53.582;9.962;2023-12-28T02:52:55;1.77;;;1.60;;
4748;SDS011;2388;53.582;9.962;2023-12-28T02:55:21;2.50;;;1.77;;
4748;SDS011;2388;53.582;9.962;2023-12-28T02:57:47;2.03;;;1.83;;
4748;SDS011;2388;53.582;9.962;2023-12-28T03:00:14;3.83;;;1.80;;
4748;SDS011;2388;53.582;9.962;2023-12-28T03:02:39;3.23;;;1.60;;
4748;SDS011;2388;53.582;9.962;2023-12-28T03:05:05;2.10;;;1.83;;
4748;SDS011;2388;53.582;9.962;2023-12-28T03:07:31;3.63;;;2.00;;
4748;SDS011;2388;53.582;9.962;2023-12-28T03:09:58;4.70;;;1.77;;
4748;SDS011;2388;53.582;9.962;2023-12-28T03:12:23;2.40;;;1.80;;
4748;SDS011;2388;53.582;9.962;2023-12-28T03:14:49;1.70;;;1.60;;
4748;SDS011;2388;53.582;9.962;2023-12-28T03:17:14;2.43;;;2.23;;
4748;SDS011;2388;53.582;9.962;2023-12-28T03:19:40;2.63;;;1.57;;
4748;SDS011;2388;53.582;9.962;2023-12-28T03:22:06;3.00;;;1.80;;
4748;SDS011;2388;53.582;9.962;2023-12-28T03:24:31;4.77;;;1.93;;
4748;SDS011;2388;53.582;9.962;2023-12-28T03:26:57;2.23;;;1.60;;
4748;SDS011;2388;53.582;9.962;2023-12-28T03:29:22;2.63;;;1.87;;
4748;SDS011;2388;53.582;9.962;2023-12-28T03:31:48;2.40;;;2.20;;
4748;SDS011;2388;53.582;9.962;2023-12-28T03:34:14;3.47;;;2.43;;
4748;SDS011;2388;53.582;9.962;2023-12-28T03:36:40;1.70;;;1.60;;
4748;SDS011;2388;53.582;9.962;2023-12-28T03:39:06;2.90;;;1.70;;
4748;SDS011;2388;53.582;9.962;2023-12-28T03:41:32;1.90;;;1.60;;
4748;SDS011;2388;53.582;9.962;2023-12-28T03:43:58;2.80;;;1.73;;
4748;SDS011;2388;53.582;9.962;2023-12-28T03:46:23;3.60;;;1.90;;
4748;SDS011;2388;53.582;9.962;2023-12-28T03:48:49;6.30;;;2.30;;
4748;SDS011;2388;53.582;9.962;2023-12-28T03:51:17;5.30;;;1.70;;
4748;SDS011;2388;53.582;9.962;2023-12-28T03:53:42;1.77;;;1.67;;
4748;SDS011;2388;53.582;9.962;2023-12-28T03:56:17;4.60;;;2.37;;
4748;SDS011;2388;53.582;9.962;2023-12-28T03:58:50;4.73;;;1.87;;
4748;SDS011;2388;53.582;9.962;2023-12-28T04:01:17;6.67;;;2.27;;
4748;SDS011;2388;53.582;9.962;2023-12-28T04:03:43;2.53;;;2.00;;
4748;SDS011;2388;53.582;9.962;2023-12-28T04:06:09;1.87;;;1.77;;
4748;SDS011;2388;53.582;9.962;2023-12-28T04:08:34;1.97;;;1.87;;
4748;SDS011;2388;53.582;9.962;2023-12-28T04:10:59;2.37;;;1.83;;
4748;SDS011;2388;53.582;9.962;2023-12-28T04:13:25;11.23;;;1.93;;
4748;SDS011;2388;53.582;9.962;2023-12-28T04:15:50;2.87;;;1.93;;
4748;SDS011;2388;53.582;9.962;2023-12-28T04:18:16;2.63;;;1.70;;
4748;SDS011;2388;53.582;9.962;2023-12-28T04:20:44;2.10;;;2.00;;
4748;SDS011;2388;53.582;9.962;2023-12-28T04:23:10;2.80;;;2.10;;
4748;SDS011;2388;53.582;9.962;2023-12-28T04:25:35;1.73;;;1.63;;
4748;SDS011;2388;53.582;9.962;2023-12-28T04:28:01;2.03;;;1.73;;
4748;SDS011;2388;53.582;9.962;2023-12-28T04:30:27;2.83;;;1.57;;
4748;SDS011;2388;53.582;9.962;2023-12-28T04:32:53;3.33;;;1.97;;
4748;SDS011;2388;53.582;9.962;2023-12-28T04:35:18;2.07;;;1.83;;
4748;SDS011;2388;53.582;9.962;2023-12-28T04:37:44;2.77;;;1.83;;
4748;SDS011;2388;53.582;9.962;2023-12-28T04:40:09;1.67;;;1.57;;
4748;SDS011;2388;53.582;9.962;2023-12-28T04:42:35;3.90;;;3.00;;
4748;SDS011;2388;53.582;9.962;2023-12-28T04:45:01;2.33;;;1.80;;
4748;SDS011;2388;53.582;9.962;2023-12-28T04:47:26;2.63;;;1.83;;
4748;SDS011;2388;53.582;9.962;2023-12-28T04:49:52;3.80;;;2.00;;
4748;SDS011;2388;53.582;9.962;2023-12-28T04:52:17;1.87;;;1.77;;
4748;SDS011;2388;53.582;9.962;2023-12-28T04:54:43;1.77;;;1.67;;
4748;SDS011;2388;53.582;9.962;2023-12-28T04:57:09;6.90;;;1.80;;
4748;SDS011;2388;53.582;9.962;2023-12-28T04:59:40;2.03;;;1.80;;
4748;SDS011;2388;53.582;9.962;2023-12-28T05:02:07;5.17;;;2.33;;
4748;SDS011;2388;53.582;9.962;2023-12-28T05:04:32;2.20;;;2.10;;
4748;SDS011;2388;53.582;9.962;2023-12-28T05:06:58;7.10;;;1.90;;
4748;SDS011;2388;53.582;9.962;2023-12-28T05:09:24;3.23;;;2.57;;
4748;SDS011;2388;53.582;9.962;2023-12-28T05:11:49;5.00;;;2.30;;
4748;SDS011;2388;53.582;9.962;2023-12-28T05:14:15;3.20;;;1.63;;
4748;SDS011;2388;53.582;9.962;2023-12-28T05:16:40;2.80;;;1.93;;
4748;SDS011;2388;53.582;9.962;2023-12-28T05:19:06;2.20;;;2.00;;
4748;SDS011;2388;53.582;9.962;2023-12-28T05:21:31;2.10;;;1.60;;
4748;SDS011;2388;53.582;9.962;2023-12-28T05:23:56;2.13;;;1.93;;
4748;SDS011;2388;53.582;9.962;2023-12-28T05:26:22;2.40;;;2.20;;
4748;SDS011;2388;53.582;9.962;2023-12-28T05:28:49;3.10;;;2.40;;
4748;SDS011;2388;53.582;9.962;2023-12-28T05:31:14;4.50;;;1.90;;
4748;SDS011;2388;53.582;9.962;2023-12-28T05:33:40;2.13;;;2.03;;
4748;SDS011;2388;53.582;9.962;2023-12-28T05:36:05;2.17;;;1.97;;
4748;SDS011;2388;53.582;9.962;2023-12-28T05:38:31;3.67;;;2.50;;
4748;SDS011;2388;53.582;9.962;2023-12-28T05:40:57;6.43;;;2.30;;
4748;SDS011;2388;53.582;9.962;2023-12-28T05:43:22;5.10;;;2.10;;
4748;SDS011;2388;53.582;9.962;2023-12-28T05:45:48;6.53;;;2.00;;
4748;SDS011;2388;53.582;9.962;2023-12-28T05:48:13;2.40;;;1.80;;
4748;SDS011;2388;53.582;9.962;2023-12-28T05:50:39;9.70;;;2.40;;
4748;SDS011;2388;53.582;9.962;2023-12-28T05:53:05;2.07;;;1.60;;
4748;SDS011;2388;53.582;9.962;2023-12-28T05:55:30;2.13;;;1.80;;
4748;SDS011;2388;53.582;9.962;2023-12-28T05:57:55;3.37;;;2.10;;
4748;SDS011;2388;53.582;9.962;2023-12-28T06:00:21;2.50;;;1.87;;
4748;SDS011;2388;53.582;9.962;2023-12-28T06:02:47;6.30;;;2.40;;
4748;SDS011;2388;53.582;9.962;2023-12-28T06:05:16;4.50;;;1.77;;
4748;SDS011;2388;53.582;9.962;2023-12-28T06:07:42;3.57;;;1.90;;
4748;SDS011;2388;53.582;9.962;2023-12-28T06:10:08;7.30;;;2.10;;
4748;SDS011;2388;53.582;9.962;2023-12-28T06:12:34;2.60;;;2.13;;
4748;SDS011;2388;53.582;9.962;2023-12-28T06:14:59;4.20;;;2.50;;
4748;SDS011;2388;53.582;9.962;2023-12-28T06:17:25;3.73;;;1.90;;
4748;SDS011;2388;53.582;9.962;2023-12-28T06:19:50;2.10;;;1.90;;
4748;SDS011;2388;53.582;9.962;2023-12-28T06:22:16;7.07;;;2.20;;
4748;SDS011;2388;53.582;9.962;2023-12-28T06:24:41;4.30;;;1.73;;
4748;SDS011;2388;53.582;9.962;2023-12-28T06:27:07;4.53;;;1.70;;
4748;SDS011;2388;53.582;9.962;2023-12-28T06:29:32;5.33;;;2.17;;
4748;SDS011;2388;53.582;9.962;2023-12-28T06:31:58;3.43;;;1.70;;
4748;SDS011;2388;53.582;9.962;2023-12-28T06:34:23;4.97;;;1.97;;
4748;SDS011;2388;53.582;9.962;2023-12-28T06:36:49;5.27;;;1.93;;
4748;SDS011;2388;53.582;9.962;2023-12-28T06:39:14;3.60;;;2.20;;
4748;SDS011;2388;53.582;9.962;2023-12-28T06:41:40;3.73;;;1.93;;
4748;SDS011;2388;53.582;9.962;2023-12-28T06:44:05;3.10;;;1.60;;
4748;SDS011;2388;53.582;9.962;2023-12-28T06:46:30;2.93;;;1.97;;
4748;SDS011;2388;53.582;9.962;2023-12-28T06:48:56;9.20;;;4.20;;
4748;SDS011;2388;53.582;9.962;2023-12-28T06:51:24;5.73;;;4.30;;
4748;SDS011;2388;53.582;9.962;2023-12-28T06:53:49;3.40;;;2.37;;
4748;SDS011;2388;53.582;9.962;2023-12-28T06:56:15;5.17;;;1.40;;
4748;SDS011;2388;53.582;9.962;2023-12-28T06:58:40;1.60;;;1.50;;
4748;SDS011;2388;53.582;9.962;2023-12-28T07:01:06;3.20;;;1.63;;
4748;SDS011;2388;53.582;9.962;2023-12-28T07:03:32;3.20;;;2.13;;
4748;SDS011;2388;53.582;9.962;2023-12-28T07:05:58;4.43;;;1.83;;
4748;SDS011;2388;53.582;9.962;2023-12-28T07:08:24;4.27;;;1.90;;
4748;SDS011;2388;53.582;9.962;2023-12-28T07:10:49;2.57;;;1.77;;
4748;SDS011;2388;53.582;9.962;2023-12-28T07:13:15;2.80;;;1.80;;
4748;SDS011;2388;53.582;9.962;2023-12-28T07:15:40;3.23;;;2.10;;
4748;SDS011;2388;53.582;9.962;2023-12-28T07:18:06;6.50;;;2.10;;
4748;SDS011;2388;53.582;9.962;2023-12-28T07:20:31;3.40;;;1.90;;
4748;SDS011;2388;53.582;9.962;2023-12-28T07:22:57;7.63;;;2.10;;
4748;SDS011;2388;53.582;9.962;2023-12-28T07:25:22;4.53;;;1.63;;
4748;SDS011;2388;53.582;9.962;2023-12-28T07:27:48;3.23;;;1.60;;
4748;SDS011;2388;53.582;9.962;2023-12-28T07:30:13;3.23;;;1.67;;
4748;SDS011;2388;53.582;9.962;2023-12-28T07:32:41;8.10;;;1.73;;
4748;SDS011;2388;53.582;9.962;2023-12-28T07:35:07;3.80;;;1.50;;
4748;SDS011;2388;53.582;9.962;2023-12-28T07:37:33;7.03;;;2.07;;
4748;SDS011;2388;53.582;9.962;2023-12-28T07:39:59;2.77;;;1.57;;
4748;SDS011;2388;53.582;9.962;2023-12-28T07:42:25;2.90;;;1.63;;
4748;SDS011;2388;53.582;9.962;2023-12-28T07:44:50;5.83;;;1.93;;
4748;SDS011;2388;53.582;9.962;2023-12-28T07:47:16;6.93;;;1.63;;
4748;SDS011;2388;53.582;9.962;2023-12-28T07:49:41;4.23;;;2.33;;
4748;SDS011;2388;53.582;9.962;2023-12-28T07:52:07;5.37;;;1.90;;
4748;SDS011;2388;53.582;9.962;2023-12-28T07:54:32;5.17;;;1.90;;
4748;SDS011;2388;53.582;9.962;2023-12-28T07:56:58;4.90;;;2.13;;
4748;SDS011;2388;53.582;9.962;2023-12-28T07:59:24;8.33;;;1.70;;
4748;SDS011;2388;53.582;9.962;2023-12-28T08:01:50;5.70;;;2.70;;
4748;SDS011;2388;53.582;9.962;2023-12-28T08:04:15;3.37;;;1.30;;
4748;SDS011;2388;53.582;9.962;2023-12-28T08:06:41;4.67;;;1.60;;
4748;SDS011;2388;53.582;9.962;2023-12-28T08:09:06;4.40;;;1.70;;
4748;SDS011;2388;53.582;9.962;2023-12-28T08:11:32;3.83;;;1.60;;
4748;SDS011;2388;53.582;9.962;2023-12-28T08:13:57;5.13;;;1.57;;
4748;SDS011;2388;53.582;9.962;2023-12-28T08:16:23;4.47;;;1.60;;
4748;SDS011;2388;53.582;9.962;2023-12-28T08:18:48;4.30;;;1.60;;
4748;SDS011;2388;53.582;9.962;2023-12-28T08:21:14;6.80;;;1.77;;
4748;SDS011;2388;53.582;9.962;2023-12-28T08:23:39;3.67;;;1.60;;
4748;SDS011;2388;53.582;9.962;2023-12-28T08:26:05;7.47;;;1.30;;
4748;SDS011;2388;53.582;9.962;2023-12-28T08:28:32;4.80;;;1.50;;
4748;SDS011;2388;53.582;9.962;2023-12-28T08:30:57;3.30;;;1.60;;
4748;SDS011;2388;53.582;9.962;2023-12-28T08:33:23;4.13;;;1.13;;
4748;SDS011;2388;53.582;9.962;2023-12-28T08:35:48;2.53;;;1.50;;
4748;SDS011;2388;53.582;9.962;2023-12-28T08:38:14;4.70;;;1.37;;
4748;SDS011;2388;53.582;9.962;2023-12-28T08:40:39;2.93;;;1.37;;
4748;SDS011;2388;53.582;9.962;2023-12-28T08:43:05;7.43;;;2.00;;
4748;SDS011;2388;53.582;9.962;2023-12-28T08:45:30;6.00;;;1.73;;
4748;SDS011;2388;53.582;9.962;2023-12-28T08:47:56;14.30;;;2.00;;
4748;SDS011;2388;53.582;9.962;2023-12-28T08:50:21;5.40;;;2.60;;
4748;SDS011;2388;53.582;9.962;2023-12-28T08:52:47;5.23;;;1.07;;
4748;SDS011;2388;53.582;9.962;2023-12-28T08:55:13;6.43;;;1.23;;
4748;SDS011;2388;53.582;9.962;2023-12-28T08:57:38;5.70;;;2.90;;
4748;SDS011;2388;53.582;9.962;2023-12-28T09:00:05;8.83;;;4.53;;
4748;SDS011;2388;53.582;9.962;2023-12-28T09:02:31;5.43;;;2.80;;
4748;SDS011;2388;53.582;9.962;2023-12-28T09:04:57;11.03;;;3.13;;
4748;SDS011;2388;53.582;9.962;2023-12-28T09:07:23;4.53;;;2.70;;
4748;SDS011;2388;53.582;9.962;2023-12-28T09:09:50;4.30;;;2.50;;
4748;SDS011;2388;53.582;9.962;2023-12-28T09:12:15;6.57;;;2.70;;
4748;SDS011;2388;53.582;9.962;2023-12-28T09:14:40;5.17;;;1.57;;
4748;SDS011;2388;53.582;9.962;2023-12-28T09:17:06;6.77;;;2.53;;
4748;SDS011;2388;53.582;9.962;2023-12-28T09:19:31;4.60;;;1.80;;
4748;SDS011;2388;53.582;9.962;2023-12-28T09:21:57;5.40;;;1.60;;
4748;SDS011;2388;53.582;9.962;2023-12-28T09:24:22;12.97;;;3.27;;
4748;SDS011;2388;53.582;9.962;2023-12-28T09:26:48;4.90;;;1.80;;
4748;SDS011;2388;53.582;9.962;2023-12-28T09:29:13;7.57;;;2.13;;
4748;SDS011;2388;53.582;9.962;2023-12-28T09:31:39;4.80;;;1.50;;
4748;SDS011;2388;53.582;9.962;2023-12-28T09:34:05;8.63;;;1.60;;
4748;SDS011;2388;53.582;9.962;2023-12-28T09:36:30;6.17;;;1.87;;
4748;SDS011;2388;53.582;9.962;2023-12-28T09:38:56;6.30;;;1.50;;
4748;SDS011;2388;53.582;9.962;2023-12-28T09:41:24;6.93;;;1.47;;
4748;SDS011;2388;53.582;9.962;2023-12-28T09:44:00;5.57;;;2.00;;
4748;SDS011;2388;53.582;9.962;2023-12-28T09:46:31;3.37;;;1.27;;
4748;SDS011;2388;53.582;9.962;2023-12-28T09:48:58;5.97;;;1.67;;
4748;SDS011;2388;53.582;9.962;2023-12-28T09:51:23;4.93;;;1.50;;
4748;SDS011;2388;53.582;9.962;2023-12-28T09:53:52;4.17;;;1.40;;
4748;SDS011;2388;53.582;9.962;2023-12-28T09:56:18;9.03;;;1.50;;
4748;SDS011;2388;53.582;9.962;2023-12-28T09:58:43;4.47;;;1.57;;
4748;SDS011;2388;53.582;9.962;2023-12-28T10:01:11;7.97;;;1.37;;
4748;SDS011;2388;53.582;9.962;2023-12-28T10:03:39;6.63;;;2.10;;
4748;SDS011;2388;53.582;9.962;2023-12-28T10:06:04;7.50;;;1.37;;
4748;SDS011;2388;53.582;9.962;2023-12-28T10:08:30;8.20;;;2.07;;
4748;SDS011;2388;53.582;9.962;2023-12-28T10:10:55;8.77;;;1.80;;
4748;SDS011;2388;53.582;9.962;2023-12-28T10:13:23;12.97;;;2.20;;
4748;SDS011;2388;53.582;9.962;2023-12-28T10:15:50;5.67;;;1.87;;
4748;SDS011;2388;53.582;9.962;2023-12-28T10:18:18;6.53;;;1.30;;
4748;SDS011;2388;53.582;9.962;2023-12-28T10:20:50;3.50;;;1.23;;
4748;SDS011;2388;53.582;9.962;2023-12-28T10:23:16;10.63;;;2.10;;
4748;SDS011;2388;53.582;9.962;2023-12-28T10:25:46;5.83;;;1.50;;
4748;SDS011;2388;53.582;9.962;2023-12-28T10:28:15;4.60;;;1.67;;
4748;SDS011;2388;53.582;9.962;2023-12-28T10:30:43;7.20;;;1.60;;
4748;SDS011;2388;53.582;9.962;2023-12-28T10:33:09;3.53;;;1.43;;
4748;SDS011;2388;53.582;9.962;2023-12-28T10:35:35;6.20;;;1.87;;
4748;SDS011;2388;53.582;9.962;2023-12-28T10:38:00;6.07;;;2.00;;
4748;SDS011;2388;53.582;9.962;2023-12-28T10:40:28;11.90;;;1.43;;
4748;SDS011;2388;53.582;9.962;2023-12-28T10:42:59;5.60;;;2.30;;
4748;SDS011;2388;53.582;9.962;2023-12-28T10:45:34;9.80;;;1.50;;
4748;SDS011;2388;53.582;9.962;2023-12-28T10:50:30;12.37;;;2.00;;
4748;SDS011;2388;53.582;9.962;2023-12-28T10:53:21;4.57;;;1.40;;
4748;SDS011;2388;53.582;9.962;2023-12-28T10:56:05;7.43;;;1.50;;
4748;SDS011;2388;53.582;9.962;2023-12-28T10:58:37;5.40;;;1.60;;
4748;SDS011;2388;53.582;9.962;2023-12-28T11:01:28;4.63;;;1.57;;
4748;SDS011;2388;53.582;9.962;2023-12-28T11:04:03;7.53;;;1.90;;
4748;SDS011;2388;53.582;9.962;2023-12-28T11:06:41;5.57;;;2.00;;
4748;SDS011;2388;53.582;9.962;2023-12-28T11:09:08;8.77;;;1.90;;
4748;SDS011;2388;53.582;9.962;2023-12-28T11:11:35;4.60;;;1.70;;
4748;SDS011;2388;53.582;9.962;2023-12-28T11:14:01;8.37;;;1.70;;
4748;SDS011;2388;53.582;9.962;2023-12-28T11:16:28;9.03;;;2.67;;
4748;SDS011;2388;53.582;9.962;2023-12-28T11:18:55;7.27;;;2.27;;
4748;SDS011;2388;53.582;9.962;2023-12-28T11:21:21;7.77;;;2.30;;
4748;SDS011;2388;53.582;9.962;2023-12-28T11:23:48;10.87;;;1.43;;
4748;SDS011;2388;53.582;9.962;2023-12-28T11:26:20;9.10;;;1.63;;
4748;SDS011;2388;53.582;9.962;2023-12-28T11:28:47;9.67;;;2.17;;
4748;SDS011;2388;53.582;9.962;2023-12-28T11:31:16;9.73;;;2.10;;
4748;SDS011;2388;53.582;9.962;2023-12-28T11:33:43;5.47;;;1.67;;
4748;SDS011;2388;53.582;9.962;2023-12-28T11:36:20;7.63;;;2.00;;
4748;SDS011;2388;53.582;9.962;2023-12-28T11:38:56;12.83;;;3.63;;
4748;SDS011;2388;53.582;9.962;2023-12-28T11:41:27;9.13;;;1.77;;
4748;SDS011;2388;53.582;9.962;2023-12-28T11:43:55;19.87;;;3.20;;
4748;SDS011;2388;53.582;9.962;2023-12-28T11:46:21;4.83;;;2.47;;
4748;SDS011;2388;53.582;9.962;2023-12-28T11:48:47;4.80;;;2.50;;
4748;SDS011;2388;53.582;9.962;2023-12-28T11:51:13;13.37;;;2.80;;
4748;SDS011;2388;53.582;9.962;2023-12-28T11:53:38;9.80;;;2.60;;
4748;SDS011;2388;53.582;9.962;2023-12-28T11:56:06;12.40;;;1.80;;
4748;SDS011;2388;53.582;9.962;2023-12-28T11:58:34;8.03;;;1.87;;
4748;SDS011;2388;53.582;9.962;2023-12-28T12:01:00;7.93;;;1.70;;
4748;SDS011;2388;53.582;9.962;2023-12-28T12:03:26;11.90;;;2.57;;
4748;SDS011;2388;53.582;9.962;2023-12-28T12:05:52;12.33;;;2.60;;
4748;SDS011;2388;53.582;9.962;2023-12-28T12:08:19;11.30;;;1.97;;
4748;SDS011;2388;53.582;9.962;2023-12-28T12:10:44;11.73;;;2.47;;
4748;SDS011;2388;53.582;9.962;2023-12-28T12:13:10;11.37;;;3.13;;
4748;SDS011;2388;53.582;9.962;2023-12-28T12:15:36;16.13;;;2.57;;
4748;SDS011;2388;53.582;9.962;2023-12-28T12:18:02;15.00;;;2.47;;
4748;SDS011;2388;53.582;9.962;2023-12-28T12:20:29;11.67;;;2.50;;
4748;SDS011;2388;53.582;9.962;2023-12-28T12:22:58;10.73;;;1.70;;
4748;SDS011;2388;53.582;9.962;2023-12-28T12:25:24;14.63;;;2.57;;
4748;SDS011;2388;53.582;9.962;2023-12-28T12:27:50;9.70;;;2.30;;
4748;SDS011;2388;53.582;9.962;2023-12-28T12:30:15;5.20;;;2.03;;
4748;SDS011;2388;53.582;9.962;2023-12-28T12:32:41;16.20;;;3.20;;
4748;SDS011;2388;53.582;9.962;2023-12-28T12:35:09;14.50;;;3.00;;
4748;SDS011;2388;53.582;9.962;2023-12-28T12:37:35;14.00;;;1.60;;
4748;SDS011;2388;53.582;9.962;2023-12-28T12:40:01;13.90;;;2.33;;
4748;SDS011;2388;53.582;9.962;2023-12-28T12:42:28;14.57;;;4.03;;
4748;SDS011;2388;53.582;9.962;2023-12-28T12:44:53;10.10;;;2.50;;
4748;SDS011;2388;53.582;9.962;2023-12-28T12:47:19;10.60;;;2.50;;
4748;SDS011;2388;53.582;9.962;2023-12-28T12:49:45;15.13;;;2.17;;
4748;SDS011;2388;53.582;9.962;2023-12-28T12:52:10;14.53;;;1.90;;
4748;SDS011;2388;53.582;9.962;2023-12-28T12:54:37;6.50;;;1.97;;
4748;SDS011;2388;53.582;9.962;2023-12-28T12:57:02;13.33;;;3.87;;
4748;SDS011;2388;53.582;9.962;2023-12-28T12:59:28;4.70;;;2.33;;
4748;SDS011;2388;53.582;9.962;2023-12-28T13:01:55;10.00;;;2.00;;
4748;SDS011;2388;53.582;9.962;2023-12-28T13:04:21;15.20;;;2.63;;
4748;SDS011;2388;53.582;9.962;2023-12-28T13:06:46;9.17;;;2.33;;
4748;SDS011;2388;53.582;9.962;2023-12-28T13:09:12;18.23;;;3.50;;
4748;SDS011;2388;53.582;9.962;2023-12-28T13:11:37;10.93;;;1.87;;
4748;SDS011;2388;53.582;9.962;2023-12-28T13:14:03;15.37;;;2.47;;
4748;SDS011;2388;53.582;9.962;2023-12-28T13:16:29;15.43;;;2.50;;
4748;SDS011;2388;53.582;9.962;2023-12-28T13:18:55;12.20;;;2.60;;
4748;SDS011;2388;53.582;9.962;2023-12-28T13:21:20;10.83;;;1.50;;
4748;SDS011;2388;53.582;9.962;2023-12-28T13:23:46;11.13;;;2.07;;
4748;SDS011;2388;53.582;9.962;2023-12-28T13:26:12;10.40;;;1.43;;
4748;SDS011;2388;53.582;9.962;2023-12-28T13:28:37;13.63;;;2.40;;
4748;SDS011;2388;53.582;9.962;2023-12-28T13:31:03;11.47;;;2.33;;
4748;SDS011;2388;53.582;9.962;2023-12-28T13:33:28;12.13;;;2.57;;
4748;SDS011;2388;53.582;9.962;2023-12-28T13:35:54;8.47;;;1.83;;
4748;SDS011;2388;53.582;9.962;2023-12-28T13:38:20;11.53;;;2.90;;
4748;SDS011;2388;53.582;9.962;2023-12-28T13:40:47;16.03;;;3.07;;
4748;SDS011;2388;53.582;9.962;2023-12-28T13:43:12;8.87;;;2.73;;
4748;SDS011;2388;53.582;9.962;2023-12-28T13:45:38;9.43;;;2.10;;
4748;SDS011;2388;53.582;9.962;2023-12-28T13:48:03;14.13;;;2.47;;
4748;SDS011;2388;53.582;9.962;2023-12-28T13:50:29;14.70;;;2.57;;
4748;SDS011;2388;53.582;9.962;2023-12-28T13:52:55;9.93;;;2.67;;
4748;SDS011;2388;53.582;9.962;2023-12-28T13:55:21;11.43;;;2.87;;
4748;SDS011;2388;53.582;9.962;2023-12-28T13:57:47;16.53;;;2.53;;
4748;SDS011;2388;53.582;9.962;2023-12-28T14:00:12;6.60;;;2.17;;
4748;SDS011;2388;53.582;9.962;2023-12-28T14:02:38;8.47;;;1.70;;
4748;SDS011;2388;53.582;9.962;2023-12-28T14:05:05;8.67;;;2.10;;
4748;SDS011;2388;53.582;9.962;2023-12-28T14:07:31;8.80;;;2.10;;
4748;SDS011;2388;53.582;9.962;2023-12-28T14:09:56;11.00;;;2.33;;
4748;SDS011;2388;53.582;9.962;2023-12-28T14:12:22;12.73;;;2.90;;
4748;SDS011;2388;53.582;9.962;2023-12-28T14:14:47;10.97;;;2.80;;
4748;SDS011;2388;53.582;9.962;2023-12-28T14:17:13;16.60;;;3.40;;
4748;SDS011;2388;53.582;9.962;2023-12-28T14:19:40;17.90;;;2.50;;
4748;SDS011;2388;53.582;9.962;2023-12-28T14:22:06;7.57;;;2.10;;
4748;SDS011;2388;53.582;9.962;2023-12-28T14:24:32;14.10;;;2.53;;
4748;SDS011;2388;53.582;9.962;2023-12-28T14:26:58;11.57;;;2.50;;
4748;SDS011;2388;53.582;9.962;2023-12-28T14:29:23;8.70;;;1.70;;
4748;SDS011;2388;53.582;9.962;2023-12-28T14:31:49;20.70;;;2.27;;
4748;SDS011;2388;53.582;9.962;2023-12-28T14:34:15;14.47;;;1.80;;
4748;SDS011;2388;53.582;9.962;2023-12-28T14:36:41;7.73;;;1.93;;
4748;SDS011;2388;53.582;9.962;2023-12-28T14:39:09;13.30;;;2.80;;
4748;SDS011;2388;53.582;9.962;2023-12-28T14:41:34;11.67;;;2.03;;
4748;SDS011;2388;53.582;9.962;2023-12-28T14:44:01;10.90;;;2.07;;
4748;SDS011;2388;53.582;9.962;2023-12-28T14:46:26;11.87;;;2.50;;
4748;SDS011;2388;53.582;9.962;2023-12-28T14:48:52;14.40;;;2.37;;
4748;SDS011;2388;53.582;9.962;2023-12-28T14:51:18;8.20;;;1.60;;
4748;SDS011;2388;53.582;9.962;2023-12-28T14:53:44;6.57;;;1.50;;
4748;SDS011;2388;53.582;9.962;2023-12-28T14:56:10;11.83;;;2.87;;
4748;SDS011;2388;53.582;9.962;2023-12-28T14:58:36;13.33;;;3.50;;
4748;SDS011;2388;53.582;9.962;2023-12-28T15:01:09;13.67;;;3.73;;
4748;SDS011;2388;53.582;9.962;2023-12-28T15:03:35;9.43;;;2.23;;
4748;SDS011;2388;53.582;9.962;2023-12-28T15:06:03;4.10;;;1.80;;
4748;SDS011;2388;53.582;9.962;2023-12-28T15:08:29;8.40;;;1.97;;
4748;SDS011;2388;53.582;9.962;2023-12-28T15:10:55;9.43;;;2.10;;
4748;SDS011;2388;53.582;9.962;2023-12-28T15:13:20;5.97;;;1.90;;
4748;SDS011;2388;53.582;9.962;2023-12-28T15:15:46;11.83;;;1.63;;